메인 페이지
METAR-TAF:

METAR-TAF

공항 :

도지시티, 캔자스, 미국

위도: 37-46-22N, 경도: 099-58-11W, 고도: 790m

현재 날씨관측

예보는 1 시간 6분 전, 01:52시(UTC)에 발표되었습니다.
남동9kt
온도 8°C
습도 61%
기압 1021 hPa
시정: 16.1km
맑음

METAR: KDDC 190152Z AUTO 13009KT 10SM CLR 08/01 A3015 RMK AO2 SLP218 T00830006

시각: 21:58 (02:58 UTC)

예보

예보는 6분 전, 02:52시(UTC)에 발표되었습니다.
예보 대상 시간: 19일 03시부터 19일 24시까지 (UTC)
남동10kt
시정: 10km
고도 10000ft 상공 구름 많음
19일 0700시부터 (UTC)
남남동10kt
시정: 10km
고도 10000ft 상공 구름 많음
19일 1300시부터 (UTC)
남서10kt
시정: 10km
고도 7000ft 상공 흐림
19일 1600시부터 (UTC)
서북서12kt
시정: 10km
고도 4000ft 상공 흐림

TAF: KDDC 190252Z 1903/1924 14010KT P6SM BKN100 FM190700 15010KT P6SM BKN100 WS020/21050KT FM191300 23010KT P6SM OVC070 FM191600 30012KT P6SM OVC040

4,000개 이상의 공항 관측 자료 및 예보 (METAR 및 TAF 보고).

지도상에서 검색 가능한 기상관측소가 노란 점과 빨간 점으로 표시되어 있습니다.

기상관측소 명을 보려면 표시 위로 마우스를 이동하세요.

날씨 관측과 예보를 보려면 클릭하세요.

지도 변경 : 확대하려면 엑스 표시가 있는 녹색 버튼, 축소하려면 빼기 표시가 있는 녹색 버튼, 다음 페이지의 지도를 보려면 녹색 화살표를 클릭하세요.


METAR-TAF: